OSDI/DAM METAR and TAF weather

Enter ICAO airport designator
Station Type Date Time Source
OSDI METAR 2022/01/29 11:00 UTC NOAA

OSDI 291100Z 23008KT 9999 SCT030 10/02 Q1021


Station Type Date Time Source
OSDI Decoded METAR 2022/01/29 11:00 UTC NOAA

Damascus Int. Airport, Syria (OSDI) 33-25N 036-31E 609M
Jan 29, 2022 - 06:00 AM EST / 2022.01.29 1100 UTC
Wind: from the SW (230 degrees) at 9 MPH (8 KT):0
Visibility: greater than 7 mile(s):0
Sky conditions: partly cloudy
Temperature: 50 F (10 C)
Dew Point: 35 F (2 C)
Relative Humidity: 57%
Pressure (altimeter): 30.15 in. Hg (1021 hPa)
ob: OSDI 291100Z 23008KT 9999 SCT030 10/02 Q1021
cycle: 11

Station Type Date Time Source
OSDI TAF 2022/01/29 12:57 UTC NOAA

TAF TAF OSDI 291100Z 2912/3018 22015KT 8000 FEW030 SCT100
BECMG 2923/3001 26008KT 3000BR PROB030
TEMPO 3002/3006 VRB03KT 0200FG
BECMG 3008/3010 25012KT 8000 FEW030

Example: see airport list